首页
METAR-TAF:

METAR-TAF

机场 :

錫達拉皮茲, 艾奥瓦州, 美国

纬度: 41-53-04N, 经度: 091-42-38W, 海拔: 263米

当前天气观测

该预报发布于37分钟前的15:52 UTC
风速5节,风向
温度 25°C
湿度 57%
气压 1017 hPa
能見度: 16.1公里
天空无云

METAR: KCID 111552Z 010005KT 10SM CLR 25/16 A3004

时间: 11:29 (16:29 UTC)

预报

该预报发布于5小时和9分钟前的11:20 UTC
预报有效从11日的 12点(UTC)到 12日的 12点(UTC)
风速4节,风向多变
能見度: 10公里
少量云层高于25000英尺

TAF: KCID 111120Z 1112/1212 VRB04KT P6SM FEW250 AMD NOT SKED

超过4000个机场的气象观测和天气预报(METAR&TAF报告)。

可查询的气象台以黄色和红色小点在地图上表示。

将鼠标移到小点上方,可查看气象台名称。

然后点击查看天气观测和预报。

如需切换地图:点击带黑十字的绿色按钮放大地图;点击带横线的绿色按钮缩小地图;或者点击绿色箭头查看邻近地区的地图。


METAR-TAF: